Meteo Giornale » Osservazioni meteo Iran » Kermanshah
ore: 00:30 - Osservazioni Meteo Kermanshah
Lat. 34° 16' N Lon. 47° 7' E Alt. 1320 metri s.l.m.
21 °C
Sereno
Temp. 24 Ore
14 °C
34 °C
Ovest/Nord-Ovest
11.1 Km/h
Dew point 3 °C
Umidità 30 %
Visibilità 10 Km
Il sole sorge alle ore 05:55
Il sole tramonta alle ore 18:46
| Data e Ora | Cielo e Fenomeni | T °C | DP °C | Um. % | Pres. hPa | Vis. km | Vento km/h | |
|---|---|---|---|---|---|---|---|---|
| Oggi h: 00:30 | Sereno | 21 | 3 | 30 | 1015 | 10 | O/NO 11.1 | |
| Ieri h: 23:30 | Sereno | 23 | 3 | 26 | 1015 | 10 | O/NO 14.8 | |
| Ieri h: 22:30 | Sereno | 24 | 2 | 23 | 1015 | 10 | O/NO 18.5 | |
| Ieri h: 21:30 | Sereno | 26 | 2 | 20 | 1015 | 10 | O/NO 14.8 | |
| Ieri h: 21:00 | Sereno | 26 | 1 | 19 | 1015 | 10 | NO 14.8 | |
| Ieri h: 20:30 | Sereno | 27 | 1 | 18 | 1015 | 10 | O/NO 25.9 | |
| Ieri h: 20:00 | Sereno | 27 | 2 | 19 | 1014 | 10 | O/NO 22.2 | |
| Ieri h: 19:30 | Sereno | 28 | 5 | 23 | 1014 | 10 | O 22.2 | |
| Ieri h: 19:00 | Sereno | 29 | 2 | 17 | 1014 | 10 | O 18.5 | |
| Ieri h: 18:30 | Sereno | 30 | -2 | 12 | 1013 | 10 | O 11.1 | |
| Ieri h: 18:00 | Sereno | 32 | -2 | 11 | 1013 | 10 | O 11.1 | |
| Ieri h: 17:30 | Sereno | 33 | -1 | 11 | 1013 | 10 | O 7.4 | |
| Ieri h: 17:00 | Sereno | 33 | -2 | 10 | 1013 | 10 | O/NO 14.8 | |
| Ieri h: 16:30 | Sereno | 33 | -2 | 10 | 1013 | 10 | O/NO 14.8 | |
| Ieri h: 16:00 | Sereno | 33 | -6 | 7 | 1013 | 10 | O/NO 14.8 | |
| Ieri h: 15:30 | Sereno | 34 | -5 | 7 | 1013 | 10 | O/NO 14.8 | |
| Ieri h: 15:00 | Sereno | 33 | -2 | 10 | 1014 | 10 | O/NO 14.8 | |
| Ieri h: 14:30 | Sereno | 33 | -2 | 10 | 1014 | 10 | O/NO 14.8 | |
| Ieri h: 14:00 | Sereno | 33 | -1 | 11 | 1014 | 10 | O/SO 14.8 | |
| Ieri h: 13:30 | Sereno | 31 | 1 | 14 | 1014 | 10 | O 14.8 | |
| Ieri h: 13:00 | Sereno | 31 | -1 | 12 | 1014 | 10 | O 11.1 | |
| Ieri h: 12:30 | Sereno | 31 | -3 | 10 | 1015 | 10 | SO 7.4 | |
| Ieri h: 12:00 | Sereno | 30 | 0 | 14 | 1015 | 10 | O 11.1 | |
| Ieri h: 11:30 | Sereno | 29 | 3 | 18 | 1015 | 10 | O 11.1 | |
| Ieri h: 11:00 | Sereno | 28 | 5 | 23 | 1016 | 10 | S 11.1 | |
| Ieri h: 10:30 | Sereno | 27 | 3 | 21 | 1016 | 10 | E 7.4 | |
| Ieri h: 10:00 | Sereno | 25 | 5 | 27 | 1016 | 10 | S 18.5 | |
| Ieri h: 09:30 | Sereno | 25 | 5 | 27 | 1016 | 10 | S 18.5 | |
| Ieri h: 09:00 | Sereno | 23 | 6 | 33 | 1016 | 10 | S/SO 14.8 | |
| Ieri h: 08:30 | Sereno | 22 | 5 | 32 | 1016 | 10 | S/SO 14.8 | |
| Ieri h: 08:00 | Sereno | 21 | 5 | 35 | 1016 | 10 | O/NO 7.4 | |
| Ieri h: 07:30 | Sereno | 18 | 4 | 39 | 1016 | 10 | N 3.7 | |
| Ieri h: 07:00 | Sereno | 16 | 3 | 41 | 1016 | 10 | N 3.7 | |
| Ieri h: 06:30 | Sereno | 14 | 3 | 47 | 1016 | 10 | N 3.7 | |
| Ieri h: 06:00 | Sereno | 14 | 3 | 47 | 1016 | 10 | N 3.7 | |
| Ieri h: 05:30 | Sereno | 14 | 4 | 50 | 1016 | 10 | N 3.7 | |
| Ieri h: 04:30 | Sereno | 16 | 4 | 44 | 1016 | 10 | N 3.7 | |
| Ieri h: 03:30 | Sereno | 19 | 5 | 39 | 1015 | 10 | O/NO 11.1 | |
| Ieri h: 02:30 | Sereno | 20 | 5 | 37 | 1016 | 10 | O/NO 14.8 | |



